createdAt,value
2018-12-07T00:00:22.217Z,81.57
2018-12-07T00:02:51.773Z,76.53
2018-12-07T00:05:19.430Z,78.27
2018-12-07T00:07:47.055Z,77.40
2018-12-07T00:10:14.728Z,69.83
2018-12-07T00:12:42.328Z,69.13
2018-12-07T00:15:09.989Z,66.10
2018-12-07T00:17:37.665Z,71.77
2018-12-07T00:20:07.305Z,64.60
2018-12-07T00:22:35.092Z,81.27
2018-12-07T00:25:02.720Z,73.33
2018-12-07T00:27:30.405Z,68.50
2018-12-07T00:29:58.031Z,74.00
2018-12-07T00:32:25.634Z,66.03
2018-12-07T00:34:53.289Z,72.90
2018-12-07T00:37:20.969Z,68.03
2018-12-07T00:39:48.801Z,59.70
2018-12-07T00:42:16.431Z,60.43
2018-12-07T00:44:44.118Z,65.70
2018-12-07T00:47:11.733Z,57.40
2018-12-07T00:49:39.475Z,60.53
2018-12-07T00:52:07.090Z,60.93
2018-12-07T00:54:34.692Z,69.10
2018-12-07T00:57:02.343Z,60.57
2018-12-07T00:59:30.102Z,62.50
2018-12-07T01:01:58.056Z,54.67
2018-12-07T01:04:25.632Z,61.20
2018-12-07T01:06:53.305Z,65.47
2018-12-07T01:09:20.958Z,53.97
2018-12-07T01:11:48.565Z,56.73
2018-12-07T01:14:16.185Z,64.03
2018-12-07T01:16:43.781Z,49.20
2018-12-07T01:19:11.476Z,59.23
2018-12-07T01:21:39.096Z,56.00
2018-12-07T01:24:06.749Z,54.63
2018-12-07T01:26:34.373Z,55.60
2018-12-07T01:29:01.960Z,57.23
2018-12-07T01:31:29.620Z,55.20
2018-12-07T01:33:57.262Z,54.17
2018-12-07T01:36:24.900Z,57.27
2018-12-07T01:38:52.547Z,55.57
2018-12-07T01:41:20.208Z,50.37
2018-12-07T01:43:47.839Z,52.80
2018-12-07T01:46:15.515Z,47.37
2018-12-07T01:48:43.084Z,55.27
2018-12-07T01:51:10.679Z,50.57
2018-12-07T01:53:38.352Z,49.00
2018-12-07T01:56:05.991Z,44.07
2018-12-07T01:58:33.640Z,44.20
2018-12-07T02:01:01.413Z,41.43
2018-12-07T02:03:29.016Z,42.93
2018-12-07T02:05:56.601Z,44.73
2018-12-07T02:08:24.244Z,38.10
2018-12-07T02:10:52.010Z,42.57
2018-12-07T02:13:19.636Z,39.03
2018-12-07T02:15:47.227Z,43.83
2018-12-07T02:18:14.856Z,43.43
2018-12-07T02:20:42.430Z,43.73
2018-12-07T02:23:10.100Z,42.73
2018-12-07T02:25:37.780Z,40.97
2018-12-07T02:28:05.559Z,38.57
2018-12-07T02:30:33.205Z,43.33
2018-12-07T02:33:00.763Z,39.60
2018-12-07T02:35:28.396Z,39.97
2018-12-07T02:37:56.067Z,41.50
2018-12-07T02:40:23.868Z,40.13
2018-12-07T02:42:51.478Z,40.63
2018-12-07T02:45:19.094Z,39.27
2018-12-07T02:47:46.752Z,34.23
2018-12-07T02:50:14.402Z,38.80
2018-12-07T02:52:42.067Z,36.33
2018-12-07T02:55:09.707Z,41.50
2018-12-07T02:57:37.350Z,34.80
2018-12-07T03:00:06.047Z,38.70
2018-12-07T03:02:33.795Z,36.67
2018-12-07T03:05:01.410Z,40.00
2018-12-07T03:07:29.051Z,36.33
2018-12-07T03:09:56.692Z,35.80
2018-12-07T03:12:24.556Z,36.10
2018-12-07T03:14:52.144Z,34.57
2018-12-07T03:17:19.805Z,34.23
2018-12-07T03:19:47.594Z,33.30
2018-12-07T03:22:15.185Z,31.30
2018-12-07T03:24:42.804Z,35.90
2018-12-07T03:27:10.662Z,29.27
2018-12-07T03:29:38.482Z,32.20
2018-12-07T03:32:06.138Z,35.10
2018-12-07T03:34:33.827Z,31.70
2018-12-07T03:37:01.473Z,29.23
2018-12-07T03:39:29.118Z,32.90
2018-12-07T03:41:56.811Z,35.57
2018-12-07T03:44:24.403Z,36.00
2018-12-07T03:46:52.000Z,33.13
2018-12-07T03:49:19.649Z,38.43
2018-12-07T03:51:47.242Z,30.13
2018-12-07T03:54:14.835Z,30.60
2018-12-07T03:56:42.493Z,34.27
2018-12-07T03:59:10.234Z,30.93
2018-12-07T04:01:37.868Z,28.50
2018-12-07T04:04:05.517Z,34.50
2018-12-07T04:06:33.161Z,31.37
2018-12-07T04:09:00.832Z,34.10
2018-12-07T04:11:28.455Z,32.70
2018-12-07T04:13:56.145Z,28.97
2018-12-07T04:16:23.816Z,29.50
2018-12-07T04:18:51.435Z,26.00
2018-12-07T04:21:19.069Z,23.13
2018-12-07T04:23:46.800Z,27.40
2018-12-07T04:26:14.429Z,28.10
2018-12-07T04:28:42.040Z,25.47
2018-12-07T04:31:09.790Z,25.47
2018-12-07T04:33:37.439Z,26.60
2018-12-07T04:36:07.594Z,32.70
2018-12-07T04:38:34.855Z,26.40
2018-12-07T04:41:02.608Z,28.20
2018-12-07T04:43:30.226Z,24.07
2018-12-07T04:45:57.938Z,25.47
2018-12-07T04:48:25.578Z,23.73
2018-12-07T04:50:53.233Z,27.33
2018-12-07T04:53:20.851Z,28.07
2018-12-07T04:55:48.523Z,27.33
2018-12-07T04:58:16.173Z,25.27
2018-12-07T05:00:43.914Z,26.07
2018-12-07T05:03:11.554Z,31.47
2018-12-07T05:05:39.359Z,27.37
2018-12-07T05:08:07.102Z,25.90
2018-12-07T05:10:34.771Z,22.37
2018-12-07T05:13:02.473Z,25.03
2018-12-07T05:15:30.313Z,27.33
2018-12-07T05:17:57.945Z,24.30
2018-12-07T05:20:25.496Z,24.07
2018-12-07T05:22:53.139Z,22.77
2018-12-07T05:25:20.732Z,30.00
2018-12-07T05:27:48.416Z,25.53
2018-12-07T05:30:15.998Z,26.63
2018-12-07T05:32:43.877Z,29.90
2018-12-07T05:35:11.647Z,25.03
2018-12-07T05:37:39.323Z,22.50
2018-12-07T05:40:06.992Z,25.40
2018-12-07T05:42:35.120Z,24.87
2018-12-07T05:45:02.736Z,20.50
2018-12-07T05:47:31.543Z,24.50
2018-12-07T05:49:59.335Z,26.23
2018-12-07T05:52:26.998Z,24.50
2018-12-07T05:54:55.782Z,20.67
2018-12-07T05:57:23.416Z,22.43
2018-12-07T05:59:51.141Z,20.70
2018-12-07T06:02:18.749Z,20.40
2018-12-07T06:04:46.439Z,22.87
2018-12-07T06:07:14.040Z,24.00
2018-12-07T06:09:41.635Z,22.13
2018-12-07T06:12:09.244Z,21.20
2018-12-07T06:14:36.944Z,17.53
2018-12-07T06:17:04.552Z,21.03
2018-12-07T06:19:32.208Z,20.80
2018-12-07T06:21:59.792Z,22.00
2018-12-07T06:24:27.433Z,18.30
2018-12-07T06:26:55.011Z,19.20
2018-12-07T06:29:23.964Z,21.87
2018-12-07T06:31:51.667Z,20.47
2018-12-07T06:34:19.349Z,21.83
2018-12-07T06:36:46.981Z,28.90
2018-12-07T06:39:14.632Z,21.50
2018-12-07T06:41:42.353Z,23.33
2018-12-07T06:44:10.125Z,24.20
2018-12-07T06:46:37.719Z,27.63
2018-12-07T06:49:10.008Z,29.17
2018-12-07T06:51:37.693Z,26.00
2018-12-07T06:54:05.372Z,30.03
2018-12-07T06:56:33.008Z,27.03
2018-12-07T06:59:01.874Z,31.47
2018-12-07T07:01:29.455Z,31.70
2018-12-07T07:03:57.035Z,21.27
2018-12-07T07:06:24.923Z,25.07
2018-12-07T07:08:53.356Z,22.57
2018-12-07T07:11:28.056Z,19.53
2018-12-07T07:14:05.463Z,24.70
2018-12-07T07:16:33.120Z,28.17
2018-12-07T07:19:00.850Z,26.40
2018-12-07T07:21:29.277Z,24.83
2018-12-07T07:24:03.754Z,22.07
2018-12-07T07:26:31.419Z,20.13
2018-12-07T07:28:59.056Z,19.97
2018-12-07T07:31:33.339Z,23.40
2018-12-07T07:34:00.962Z,43.97
2018-12-07T07:36:28.557Z,33.40
2018-12-07T07:38:56.342Z,33.03
2018-12-07T07:41:23.978Z,23.77
2018-12-07T07:43:51.549Z,26.03
2018-12-07T07:46:19.375Z,38.67
2018-12-07T07:48:46.999Z,29.33
2018-12-07T07:51:14.667Z,21.23
2018-12-07T07:53:42.350Z,26.33
2018-12-07T07:56:15.393Z,21.03
2018-12-07T07:58:39.611Z,24.33
2018-12-07T08:01:07.344Z,25.70
2018-12-07T08:03:34.954Z,29.70
2018-12-07T08:06:02.569Z,29.67
2018-12-07T08:08:30.203Z,25.13
2018-12-07T08:10:57.844Z,18.40
2018-12-07T08:13:25.472Z,18.50
2018-12-07T08:15:53.123Z,27.13
2018-12-07T08:18:20.686Z,24.70
2018-12-07T08:20:48.297Z,24.10
2018-12-07T08:23:15.898Z,22.53
2018-12-07T08:25:43.602Z,19.80
2018-12-07T08:28:11.234Z,20.53
2018-12-07T08:30:38.826Z,16.60
2018-12-07T08:33:06.478Z,17.00
2018-12-07T08:35:34.161Z,16.90
2018-12-07T08:38:01.760Z,20.63
2018-12-07T08:40:29.372Z,19.23
2018-12-07T08:42:58.326Z,19.07
2018-12-07T08:45:26.123Z,17.17
2018-12-07T08:47:53.740Z,20.87
2018-12-07T08:50:21.494Z,18.70
2018-12-07T08:52:49.233Z,18.10
2018-12-07T08:55:16.803Z,14.80
2018-12-07T08:57:44.562Z,16.10
2018-12-07T09:00:12.171Z,12.83
2018-12-07T09:02:39.743Z,17.83
2018-12-07T09:05:08.781Z,13.50
2018-12-07T09:07:36.414Z,21.20
2018-12-07T09:10:04.132Z,14.70
2018-12-07T09:12:31.744Z,17.10
2018-12-07T09:14:59.398Z,15.23
2018-12-07T09:17:27.005Z,16.50
2018-12-07T09:19:54.659Z,18.10
2018-12-07T09:22:22.347Z,13.40
2018-12-07T09:24:49.950Z,12.63
2018-12-07T09:27:17.863Z,28.50
2018-12-07T09:29:45.456Z,14.83
2018-12-07T09:32:13.153Z,14.83
2018-12-07T09:34:40.764Z,13.60
2018-12-07T09:37:08.441Z,12.43
2018-12-07T09:39:36.031Z,13.93
2018-12-07T09:42:03.649Z,11.60
2018-12-07T09:44:31.224Z,12.23
2018-12-07T09:46:58.924Z,14.70
2018-12-07T09:49:26.535Z,14.80
2018-12-07T09:51:54.201Z,14.97
2018-12-07T09:54:21.805Z,16.37
2018-12-07T09:56:49.512Z,11.77
2018-12-07T09:59:17.144Z,14.90
2018-12-07T10:01:44.739Z,14.90
2018-12-07T10:04:12.439Z,28.57
2018-12-07T10:06:39.994Z,13.50
2018-12-07T10:09:07.978Z,13.97
2018-12-07T10:11:35.651Z,13.30
2018-12-07T10:14:03.234Z,25.67
2018-12-07T10:16:30.832Z,11.40
2018-12-07T10:18:58.503Z,23.77
2018-12-07T10:21:26.263Z,17.03
2018-12-07T10:23:53.898Z,13.50
2018-12-07T10:26:21.564Z,12.10
2018-12-07T10:28:49.373Z,10.70
2018-12-07T10:31:17.055Z,11.40
2018-12-07T10:33:44.707Z,12.20
2018-12-07T10:36:12.412Z,12.60
2018-12-07T10:38:40.079Z,9.57
2018-12-07T10:41:07.763Z,18.03
2018-12-07T10:43:35.499Z,10.83
2018-12-07T10:46:03.103Z,12.17
2018-12-07T10:48:30.742Z,8.70
2018-12-07T10:50:58.368Z,11.70
2018-12-07T10:53:26.004Z,12.27
2018-12-07T10:55:53.667Z,9.73
2018-12-07T10:58:21.307Z,11.00
2018-12-07T11:00:54.738Z,9.23
2018-12-07T11:03:27.980Z,10.23
2018-12-07T11:06:01.202Z,13.67
2018-12-07T11:09:34.257Z,8.10
2018-12-07T11:12:08.148Z,9.40
2018-12-07T11:14:41.332Z,11.70
2018-12-07T11:17:14.516Z,9.90
2018-12-07T11:19:47.674Z,15.73
2018-12-07T11:22:20.874Z,12.43
2018-12-07T11:24:54.136Z,8.80
2018-12-07T11:27:27.204Z,10.17
2018-12-07T11:30:00.459Z,8.20
2018-12-07T11:32:34.796Z,8.13
2018-12-07T11:35:07.104Z,9.27
2018-12-07T11:37:34.823Z,9.57
2018-12-07T11:40:02.480Z,11.20
2018-12-07T11:42:30.331Z,8.63
2018-12-07T11:44:58.012Z,7.97
2018-12-07T11:47:25.640Z,8.90
2018-12-07T11:49:53.251Z,10.23
2018-12-07T11:52:20.859Z,8.53
2018-12-07T11:54:48.482Z,9.27
2018-12-07T11:57:16.138Z,8.33
2018-12-07T11:59:43.731Z,10.40
2018-12-07T12:02:11.341Z,9.00
2018-12-07T12:04:38.953Z,8.20
2018-12-07T12:07:06.688Z,8.07
2018-12-07T12:09:34.323Z,6.53
2018-12-07T12:12:01.904Z,8.20
2018-12-07T12:14:29.711Z,8.90
2018-12-07T12:16:57.297Z,6.70
2018-12-07T12:19:24.896Z,5.80
2018-12-07T12:21:52.590Z,8.97
2018-12-07T12:24:20.188Z,9.37
2018-12-07T12:26:47.869Z,9.20
2018-12-07T12:29:15.444Z,8.83
2018-12-07T12:31:43.104Z,7.23
2018-12-07T12:34:10.753Z,6.97
2018-12-07T12:36:38.297Z,6.40
2018-12-07T12:39:07.005Z,7.67
2018-12-07T12:41:34.585Z,6.57
2018-12-07T12:44:02.271Z,6.90
2018-12-07T12:46:29.938Z,9.10
2018-12-07T12:48:57.559Z,8.73
2018-12-07T12:51:25.383Z,18.23
2018-12-07T12:53:53.034Z,17.67
2018-12-07T12:56:20.943Z,10.70
2018-12-07T12:58:48.674Z,17.03
2018-12-07T13:01:16.311Z,19.13
2018-12-07T13:03:43.912Z,17.63
2018-12-07T13:06:11.585Z,26.03
2018-12-07T13:08:40.389Z,22.07
2018-12-07T13:11:07.974Z,8.60
2018-12-07T13:13:35.738Z,12.13
2018-12-07T13:16:03.445Z,11.10
2018-12-07T13:18:31.031Z,21.83
2018-12-07T13:20:58.709Z,10.23
2018-12-07T13:23:26.425Z,9.80
2018-12-07T13:25:54.062Z,7.57
2018-12-07T13:28:21.751Z,10.47
2018-12-07T13:30:49.418Z,25.47
2018-12-07T13:33:17.042Z,31.13
2018-12-07T13:35:44.732Z,14.80
2018-12-07T13:38:12.340Z,76.83
2018-12-07T13:40:40.001Z,19.23
2018-12-07T13:43:07.793Z,17.90
2018-12-07T13:45:35.782Z,28.27
2018-12-07T13:48:03.569Z,24.83
2018-12-07T13:50:37.102Z,16.07
2018-12-07T13:53:04.915Z,27.43
2018-12-07T13:55:32.834Z,35.07
2018-12-07T13:58:00.762Z,14.90
2018-12-07T14:00:28.581Z,21.23
2018-12-07T14:02:56.402Z,18.33
2018-12-07T14:05:24.303Z,16.60
2018-12-07T14:07:53.882Z,27.23
2018-12-07T14:10:21.677Z,26.57
2018-12-07T14:12:49.517Z,21.60
2018-12-07T14:15:17.302Z,20.03
2018-12-07T14:17:45.037Z,17.93
2018-12-07T14:20:12.875Z,16.03
2018-12-07T14:22:40.941Z,17.70
2018-12-07T14:25:08.717Z,18.83
2018-12-07T14:27:36.769Z,22.17
2018-12-07T14:30:05.691Z,11.40
2018-12-07T14:32:33.569Z,11.70
2018-12-07T14:35:01.379Z,22.10
2018-12-07T14:37:29.221Z,9.60
2018-12-07T14:39:57.077Z,7.77
2018-12-07T14:42:24.800Z,14.73
2018-12-07T14:44:52.380Z,19.37
2018-12-07T14:47:20.150Z,17.27
2018-12-07T14:49:48.176Z,8.60
2018-12-07T14:52:16.110Z,9.23
2018-12-07T14:54:43.829Z,12.00
2018-12-07T14:57:11.802Z,8.63
2018-12-07T14:59:39.764Z,8.40
2018-12-07T15:02:07.430Z,7.07
2018-12-07T15:04:35.361Z,9.40
2018-12-07T15:07:03.101Z,16.97
2018-12-07T15:09:31.007Z,9.70
2018-12-07T15:11:58.988Z,8.77
2018-12-07T15:14:26.832Z,7.90
2018-12-07T15:16:54.705Z,9.30
2018-12-07T15:19:22.331Z,9.83
2018-12-07T15:21:50.184Z,4.87
2018-12-07T15:24:18.203Z,10.20
2018-12-07T15:26:46.269Z,10.77
2018-12-07T15:29:14.047Z,11.90
2018-12-07T15:31:42.064Z,9.70
2018-12-07T15:34:09.972Z,9.83
2018-12-07T15:36:37.874Z,15.30
2018-12-07T15:39:08.167Z,6.00
2018-12-07T15:41:36.021Z,8.20
2018-12-07T15:44:03.837Z,10.90
2018-12-07T15:46:31.819Z,8.30
2018-12-07T15:48:59.665Z,8.03
2018-12-07T15:51:27.370Z,8.20
2018-12-07T15:53:55.055Z,10.83
2018-12-07T15:56:22.672Z,6.90
2018-12-07T15:58:50.333Z,5.23
2018-12-07T16:01:18.724Z,6.93
2018-12-07T16:03:46.730Z,3.50
2018-12-07T16:06:14.331Z,5.30
2018-12-07T16:08:42.323Z,7.13
2018-12-07T16:11:10.197Z,8.57
2018-12-07T16:13:38.236Z,4.20
2018-12-07T16:16:06.085Z,6.07
2018-12-07T16:18:33.984Z,7.07
2018-12-07T16:21:01.773Z,5.60
2018-12-07T16:23:29.428Z,6.47
2018-12-07T16:25:57.181Z,8.87
2018-12-07T16:28:25.041Z,5.83
2018-12-07T16:30:52.998Z,6.03
2018-12-07T16:33:21.004Z,4.43
2018-12-07T16:35:48.827Z,6.10
2018-12-07T16:38:16.630Z,3.53
2018-12-07T16:40:44.430Z,5.57
2018-12-07T16:43:12.459Z,13.77
2018-12-07T16:45:40.207Z,6.83
2018-12-07T16:48:08.046Z,7.30
2018-12-07T16:50:36.333Z,6.70
2018-12-07T16:53:04.160Z,3.60
2018-12-07T16:55:31.800Z,6.07
2018-12-07T16:57:59.608Z,3.50
2018-12-07T17:00:27.294Z,3.63
2018-12-07T17:02:55.097Z,5.83
2018-12-07T17:05:23.019Z,3.50
2018-12-07T17:07:50.715Z,5.50
2018-12-07T17:10:18.395Z,6.30
2018-12-07T17:12:46.225Z,5.67
2018-12-07T17:15:14.104Z,4.30
2018-12-07T17:17:41.870Z,6.20
2018-12-07T17:20:09.602Z,2.60
2018-12-07T17:22:37.361Z,3.87
2018-12-07T17:25:05.088Z,3.30
2018-12-07T17:27:32.788Z,4.43
2018-12-07T17:30:00.460Z,4.40
2018-12-07T17:32:28.450Z,4.90
2018-12-07T17:34:56.255Z,4.67
2018-12-07T17:37:24.067Z,4.27
2018-12-07T17:39:51.808Z,4.57
2018-12-07T17:42:19.624Z,4.13
2018-12-07T17:44:47.369Z,5.40
2018-12-07T17:47:15.082Z,4.93
2018-12-07T17:49:42.860Z,3.50
2018-12-07T17:52:10.761Z,3.70
2018-12-07T17:54:38.486Z,5.13
2018-12-07T17:57:06.441Z,3.00
2018-12-07T17:59:34.266Z,3.47
2018-12-07T18:02:01.888Z,6.10
2018-12-07T18:04:29.573Z,10.70
2018-12-07T18:06:57.476Z,3.67
2018-12-07T18:09:25.236Z,3.80
2018-12-07T18:11:52.932Z,4.03
2018-12-07T18:14:20.683Z,3.00
2018-12-07T18:16:48.400Z,4.53
2018-12-07T18:19:16.116Z,3.40
2018-12-07T18:21:43.884Z,5.30
2018-12-07T18:24:11.632Z,7.00
2018-12-07T18:26:39.460Z,5.07
2018-12-07T18:29:07.417Z,2.47
2018-12-07T18:31:35.411Z,2.43
2018-12-07T18:34:03.198Z,2.70
2018-12-07T18:36:31.010Z,3.60
2018-12-07T18:38:59.026Z,7.10
2018-12-07T18:41:27.114Z,2.97
2018-12-07T18:43:55.085Z,3.00
2018-12-07T18:46:23.040Z,4.07
2018-12-07T18:48:50.965Z,2.37
2018-12-07T18:51:18.767Z,2.90
2018-12-07T18:53:46.593Z,2.67
2018-12-07T18:56:14.441Z,4.17
2018-12-07T18:58:42.301Z,2.57
2018-12-07T19:01:11.004Z,4.10
2018-12-07T19:03:39.073Z,2.70
2018-12-07T19:06:07.030Z,3.37
2018-12-07T19:08:34.716Z,2.83
2018-12-07T19:11:02.798Z,4.03
2018-12-07T19:13:30.622Z,2.23
2018-12-07T19:15:58.505Z,3.63
2018-12-07T19:18:26.309Z,3.00
2018-12-07T19:20:54.215Z,2.43
2018-12-07T19:23:22.258Z,3.63
2018-12-07T19:25:49.989Z,3.60
2018-12-07T19:28:18.023Z,3.87
2018-12-07T19:30:45.977Z,3.37
2018-12-07T19:33:14.163Z,4.33
2018-12-07T19:35:42.119Z,4.23
2018-12-07T19:38:09.960Z,3.80
2018-12-07T19:40:37.722Z,3.50
2018-12-07T19:43:05.637Z,3.93
2018-12-07T19:45:33.434Z,5.43
2018-12-07T19:48:01.530Z,4.13
2018-12-07T19:50:29.353Z,2.97
2018-12-07T19:52:57.053Z,4.90
2018-12-07T19:55:24.969Z,4.90
2018-12-07T19:57:52.608Z,3.53
2018-12-07T20:00:20.409Z,4.40
2018-12-07T20:02:50.433Z,2.90
2018-12-07T20:05:18.576Z,5.87
2018-12-07T20:07:46.341Z,6.10
2018-12-07T20:10:13.962Z,4.13
2018-12-07T20:12:41.789Z,3.80
2018-12-07T20:15:09.730Z,3.20
2018-12-07T20:17:37.481Z,2.60
2018-12-07T20:20:06.104Z,7.67
2018-12-07T20:22:33.923Z,4.37
2018-12-07T20:25:01.687Z,3.73
2018-12-07T20:27:29.337Z,3.10
2018-12-07T20:29:57.272Z,5.70
2018-12-07T20:32:25.044Z,4.20
2018-12-07T20:34:52.670Z,4.77
2018-12-07T20:37:20.414Z,3.03
2018-12-07T20:39:48.446Z,3.07
2018-12-07T20:42:16.192Z,3.23
2018-12-07T20:44:44.184Z,5.70
2018-12-07T20:47:11.983Z,3.00
2018-12-07T20:49:39.872Z,2.33
2018-12-07T20:52:08.056Z,4.00
2018-12-07T20:54:35.834Z,3.10
2018-12-07T20:57:03.642Z,2.50
2018-12-07T20:59:31.501Z,4.57
2018-12-07T21:01:59.265Z,4.40
2018-12-07T21:04:37.653Z,6.67
2018-12-07T21:07:21.126Z,4.30
2018-12-07T21:09:48.809Z,3.93
2018-12-07T21:12:49.727Z,3.30
2018-12-07T21:15:17.344Z,2.80
2018-12-07T21:17:45.254Z,2.90
2018-12-07T21:20:16.407Z,3.63
2018-12-07T21:22:44.151Z,4.23
2018-12-07T21:25:11.844Z,5.13
2018-12-07T21:27:39.734Z,4.17
2018-12-07T21:30:32.068Z,5.27
2018-12-07T21:32:59.893Z,6.60
2018-12-07T21:35:27.855Z,6.13
2018-12-07T21:37:55.632Z,4.47
2018-12-07T21:40:28.764Z,4.80
2018-12-07T21:42:56.801Z,8.30
2018-12-07T21:45:24.870Z,4.60
2018-12-07T21:48:22.451Z,3.63
2018-12-07T21:50:55.913Z,4.17
2018-12-07T21:53:23.591Z,2.70
2018-12-07T21:55:51.218Z,5.60
2018-12-07T21:58:18.875Z,2.00
2018-12-07T22:00:46.777Z,7.90
2018-12-07T22:03:14.967Z,9.03
2018-12-07T22:05:42.941Z,4.57
2018-12-07T22:08:10.868Z,5.67
2018-12-07T22:10:38.816Z,10.67
2018-12-07T22:13:06.746Z,2.50
2018-12-07T22:15:34.588Z,4.03
2018-12-07T22:18:02.397Z,3.03
2018-12-07T22:20:30.203Z,6.13
2018-12-07T22:22:57.960Z,3.93
2018-12-07T22:25:25.848Z,4.07
2018-12-07T22:27:53.602Z,4.63
2018-12-07T22:30:21.424Z,4.60
2018-12-07T22:32:49.216Z,2.67
2018-12-07T22:35:17.190Z,3.33
2018-12-07T22:37:44.985Z,6.03
2018-12-07T22:40:12.919Z,6.40
2018-12-07T22:42:40.868Z,3.63
2018-12-07T22:45:08.556Z,4.63
2018-12-07T22:47:36.222Z,4.10
2018-12-07T22:50:03.904Z,5.93
2018-12-07T22:52:31.500Z,6.07
2018-12-07T22:54:59.121Z,4.80
2018-12-07T22:57:26.675Z,4.33
2018-12-07T22:59:54.297Z,6.40
2018-12-07T23:02:21.872Z,3.83
2018-12-07T23:04:49.581Z,7.37
2018-12-07T23:07:17.243Z,9.67
2018-12-07T23:09:44.851Z,6.03
2018-12-07T23:12:12.500Z,8.30
2018-12-07T23:14:40.087Z,3.80
2018-12-07T23:17:07.689Z,5.57
2018-12-07T23:19:35.277Z,5.50
2018-12-07T23:22:03.012Z,5.07
2018-12-07T23:24:30.631Z,5.40
2018-12-07T23:26:58.236Z,4.07
2018-12-07T23:29:25.883Z,5.33
2018-12-07T23:31:53.560Z,3.40
2018-12-07T23:34:21.219Z,6.50
2018-12-07T23:36:48.836Z,5.83
2018-12-07T23:39:16.439Z,7.70
2018-12-07T23:41:44.095Z,5.30
2018-12-07T23:44:11.860Z,5.07
2018-12-07T23:46:39.515Z,6.00
2018-12-07T23:49:07.161Z,6.10
2018-12-07T23:51:35.665Z,3.70
2018-12-07T23:54:03.433Z,5.27
2018-12-07T23:56:31.133Z,4.37
2018-12-07T23:58:58.734Z,6.60
